createdAt,value
2018-04-18T00:01:57.090Z,12.34
2018-04-18T00:04:24.595Z,12.33
2018-04-18T00:06:52.036Z,12.41
2018-04-18T00:09:19.516Z,12.32
2018-04-18T00:11:46.969Z,12.36
2018-04-18T00:14:14.452Z,12.41
2018-04-18T00:16:41.905Z,12.33
2018-04-18T00:19:09.428Z,12.40
2018-04-18T00:21:36.873Z,12.36
2018-04-18T00:24:04.335Z,12.34
2018-04-18T00:26:31.820Z,12.25
2018-04-18T00:28:59.262Z,12.32
2018-04-18T00:31:26.815Z,12.38
2018-04-18T00:33:54.367Z,12.41
2018-04-18T00:36:21.853Z,12.36
2018-04-18T00:38:49.304Z,12.40
2018-04-18T00:41:16.790Z,12.43
2018-04-18T00:43:44.248Z,12.40
2018-04-18T00:46:11.760Z,12.53
2018-04-18T00:48:39.211Z,12.46
2018-04-18T00:51:06.692Z,12.47
2018-04-18T00:53:34.148Z,12.42
2018-04-18T00:56:01.639Z,12.50
2018-04-18T00:58:29.099Z,12.48
2018-04-18T01:00:56.579Z,12.55
2018-04-18T01:03:24.067Z,12.51
2018-04-18T01:05:51.548Z,12.51
2018-04-18T01:08:18.999Z,12.44
2018-04-18T01:10:46.527Z,12.45
2018-04-18T01:13:13.980Z,12.60
2018-04-18T01:15:41.461Z,12.61
2018-04-18T01:18:08.911Z,12.53
2018-04-18T01:20:36.392Z,12.43
2018-04-18T01:23:03.843Z,12.46
2018-04-18T01:25:31.327Z,12.49
2018-04-18T01:27:58.784Z,12.53
2018-04-18T01:30:26.596Z,12.49
2018-04-18T01:32:54.046Z,12.54
2018-04-18T01:35:21.500Z,12.52
2018-04-18T01:37:49.064Z,12.48
2018-04-18T01:40:16.623Z,12.45
2018-04-18T01:42:44.103Z,12.42
2018-04-18T01:45:11.548Z,12.44
2018-04-18T01:47:39.015Z,12.40
2018-04-18T01:50:06.464Z,12.19
2018-04-18T01:52:33.939Z,12.29
2018-04-18T01:55:01.389Z,12.34
2018-04-18T01:57:28.866Z,12.26
2018-04-18T01:59:56.315Z,12.22
2018-04-18T02:02:23.788Z,12.31
2018-04-18T02:04:51.244Z,12.33
2018-04-18T02:07:18.752Z,12.28
2018-04-18T02:09:46.201Z,12.22
2018-04-18T02:12:13.682Z,12.18
2018-04-18T02:14:41.159Z,12.16
2018-04-18T02:17:08.680Z,12.25
2018-04-18T02:19:36.123Z,12.29
2018-04-18T02:22:03.603Z,12.26
2018-04-18T02:24:31.164Z,12.19
2018-04-18T02:26:58.652Z,12.20
2018-04-18T02:29:26.116Z,12.18
2018-04-18T02:31:53.566Z,12.14
2018-04-18T02:34:21.062Z,12.19
2018-04-18T02:36:48.510Z,12.20
2018-04-18T02:39:16.002Z,12.13
2018-04-18T02:41:44.383Z,12.21
2018-04-18T02:44:11.864Z,12.11
2018-04-18T02:46:39.316Z,12.07
2018-04-18T02:49:06.804Z,12.03
2018-04-18T02:51:34.256Z,12.02
2018-04-18T02:54:01.742Z,12.06
2018-04-18T02:56:29.198Z,12.08
2018-04-18T02:58:56.685Z,12.13
2018-04-18T03:01:24.139Z,12.15
2018-04-18T03:03:51.633Z,12.15
2018-04-18T03:06:19.144Z,12.02
2018-04-18T03:08:46.596Z,11.97
2018-04-18T03:11:14.079Z,11.97
2018-04-18T03:13:41.530Z,11.95
2018-04-18T03:16:09.004Z,11.90
2018-04-18T03:18:36.461Z,11.97
2018-04-18T03:21:03.984Z,12.07
2018-04-18T03:23:31.437Z,12.07
2018-04-18T03:25:58.915Z,12.03
2018-04-18T03:28:26.364Z,12.04
2018-04-18T03:30:53.848Z,12.10
2018-04-18T03:33:21.300Z,11.99
2018-04-18T03:35:48.775Z,11.93
2018-04-18T03:38:16.237Z,11.97
2018-04-18T03:40:43.725Z,11.98
2018-04-18T03:43:11.175Z,11.94
2018-04-18T03:45:38.657Z,11.92
2018-04-18T03:48:06.119Z,11.84
2018-04-18T03:50:33.623Z,11.82
2018-04-18T03:53:01.132Z,11.87
2018-04-18T03:55:28.592Z,11.85
2018-04-18T03:57:56.084Z,11.88
2018-04-18T04:00:23.548Z,11.88
2018-04-18T04:02:51.039Z,11.84
2018-04-18T04:05:18.503Z,11.86
2018-04-18T04:07:45.991Z,11.85
2018-04-18T04:10:13.449Z,11.86
2018-04-18T04:12:40.937Z,11.92
2018-04-18T04:15:08.396Z,11.91
2018-04-18T04:17:47.623Z,11.80
2018-04-18T04:20:26.755Z,11.83
2018-04-18T04:23:06.156Z,11.94
2018-04-18T04:25:33.650Z,11.96
2018-04-18T04:28:01.989Z,12.05
2018-04-18T04:30:29.444Z,12.06
2018-04-18T04:32:56.946Z,12.09
2018-04-18T04:35:24.456Z,12.15
2018-04-18T04:37:51.940Z,12.16
2018-04-18T04:40:19.403Z,12.06
2018-04-18T04:42:46.932Z,12.09
2018-04-18T04:45:14.488Z,12.23
2018-04-18T04:47:41.984Z,12.16
2018-04-18T04:50:09.435Z,12.20
2018-04-18T04:52:36.919Z,12.42
2018-04-18T04:55:04.376Z,12.52
2018-04-18T04:57:32.891Z,12.48
2018-04-18T05:00:00.344Z,12.48
2018-04-18T05:02:27.910Z,12.57
2018-04-18T05:04:55.375Z,12.77
2018-04-18T05:07:22.871Z,13.05
2018-04-18T05:09:51.263Z,13.12
2018-04-18T05:12:18.721Z,12.99
2018-04-18T05:14:46.212Z,13.12
2018-04-18T05:17:13.668Z,12.97
2018-04-18T05:19:41.155Z,13.08
2018-04-18T05:22:08.620Z,12.88
2018-04-18T05:24:36.108Z,12.98
2018-04-18T05:27:03.603Z,13.15
2018-04-18T05:29:31.083Z,13.36
2018-04-18T05:31:58.537Z,13.48
2018-04-18T05:34:26.024Z,13.44
2018-04-18T05:36:53.532Z,13.63
2018-04-18T05:39:21.013Z,13.65
2018-04-18T05:41:48.468Z,13.74
2018-04-18T05:44:15.960Z,13.91
2018-04-18T05:46:43.429Z,14.05
2018-04-18T05:49:10.915Z,14.09
2018-04-18T05:51:38.369Z,14.09
2018-04-18T05:54:05.880Z,14.20
2018-04-18T05:56:33.363Z,14.27
2018-04-18T05:59:00.855Z,14.52
2018-04-18T06:01:28.311Z,14.56
2018-04-18T06:03:55.791Z,14.78
2018-04-18T06:06:23.251Z,14.94
2018-04-18T06:08:50.739Z,15.00
2018-04-18T06:11:18.199Z,15.09
2018-04-18T06:13:45.664Z,15.38
2018-04-18T06:16:13.151Z,15.41
2018-04-18T06:18:40.615Z,15.52
2018-04-18T06:21:08.100Z,15.58
2018-04-18T06:23:35.559Z,15.66
2018-04-18T06:26:03.060Z,15.90
2018-04-18T06:28:30.519Z,16.11
2018-04-18T06:30:58.008Z,16.20
2018-04-18T06:33:26.449Z,16.34
2018-04-18T06:35:53.944Z,16.32
2018-04-18T06:38:21.400Z,16.12
2018-04-18T06:40:48.884Z,16.17
2018-04-18T06:43:17.295Z,16.33
2018-04-18T06:45:44.780Z,16.46
2018-04-18T06:48:13.142Z,16.52
2018-04-18T06:50:40.637Z,16.66
2018-04-18T06:53:08.143Z,17.02
2018-04-18T06:55:35.595Z,17.06
2018-04-18T06:58:03.083Z,17.30
2018-04-18T07:00:30.531Z,17.51
2018-04-18T07:02:58.015Z,17.57
2018-04-18T07:05:25.495Z,17.80
2018-04-18T07:07:53.007Z,17.94
2018-04-18T07:10:20.465Z,18.08
2018-04-18T07:12:47.955Z,18.36
2018-04-18T07:15:15.415Z,18.01
2018-04-18T07:17:42.897Z,18.43
2018-04-18T07:20:11.247Z,18.34
2018-04-18T07:22:38.724Z,18.06
2018-04-18T07:25:06.199Z,18.23
2018-04-18T07:27:33.707Z,18.23
2018-04-18T07:30:01.178Z,18.20
2018-04-18T07:32:28.755Z,18.30
2018-04-18T07:34:59.562Z,18.38
2018-04-18T07:37:27.043Z,18.46
2018-04-18T07:39:54.495Z,18.59
2018-04-18T07:42:21.980Z,18.37
2018-04-18T07:44:49.516Z,18.48
2018-04-18T07:47:17.052Z,18.68
2018-04-18T07:49:44.503Z,18.46
2018-04-18T07:52:11.964Z,18.41
2018-04-18T07:54:39.447Z,19.18
2018-04-18T07:57:06.905Z,19.59
2018-04-18T07:59:34.403Z,19.23
2018-04-18T08:02:01.859Z,19.33
2018-04-18T08:04:29.343Z,19.08
2018-04-18T08:06:56.803Z,19.16
2018-04-18T08:09:25.250Z,19.44
2018-04-18T08:11:52.679Z,19.14
2018-04-18T08:14:20.162Z,19.25
2018-04-18T08:16:47.612Z,19.24
2018-04-18T08:19:15.091Z,19.40
2018-04-18T08:21:42.556Z,19.51
2018-04-18T08:24:10.035Z,19.71
2018-04-18T08:26:37.487Z,19.78
2018-04-18T08:29:04.983Z,20.00
2018-04-18T08:31:32.427Z,19.90
2018-04-18T08:34:00.189Z,20.09
2018-04-18T08:36:27.644Z,20.17
2018-04-18T08:38:55.129Z,19.75
2018-04-18T08:41:22.617Z,19.83
2018-04-18T08:43:50.072Z,20.04
2018-04-18T08:46:17.556Z,20.38
2018-04-18T08:48:45.015Z,20.31
2018-04-18T08:51:12.588Z,19.87
2018-04-18T08:53:40.048Z,19.84
2018-04-18T08:56:07.532Z,19.92
2018-04-18T08:58:35.060Z,19.98
2018-04-18T09:01:02.547Z,20.14
2018-04-18T09:03:30.075Z,20.25
2018-04-18T09:05:58.559Z,20.02
2018-04-18T09:08:26.999Z,20.24
2018-04-18T09:10:54.485Z,20.34
2018-04-18T09:13:21.939Z,20.73
2018-04-18T09:15:49.478Z,21.02
2018-04-18T09:18:16.968Z,20.76
2018-04-18T09:20:44.475Z,20.59
2018-04-18T09:23:11.928Z,20.75
2018-04-18T09:25:39.388Z,20.75
2018-04-18T09:28:06.863Z,20.77
2018-04-18T09:30:35.241Z,20.52
2018-04-18T09:33:02.729Z,20.82
2018-04-18T09:35:30.186Z,21.13
2018-04-18T09:37:57.671Z,20.85
2018-04-18T09:40:25.124Z,21.09
2018-04-18T09:42:52.608Z,21.31
2018-04-18T09:45:20.063Z,21.20
2018-04-18T09:47:47.572Z,21.42
2018-04-18T09:50:15.021Z,21.55
2018-04-18T09:52:43.540Z,21.63
2018-04-18T09:55:10.991Z,20.97
2018-04-18T09:57:38.436Z,21.53
2018-04-18T10:00:05.911Z,21.82
2018-04-18T10:02:37.325Z,21.58
2018-04-18T10:05:07.772Z,22.26
2018-04-18T10:07:35.228Z,21.85
2018-04-18T10:10:02.723Z,21.85
2018-04-18T10:12:30.166Z,22.26
2018-04-18T10:14:57.693Z,21.63
2018-04-18T10:17:25.142Z,21.32
2018-04-18T10:19:52.621Z,21.02
2018-04-18T10:22:20.091Z,21.04
2018-04-18T10:24:48.535Z,21.51
2018-04-18T10:27:15.979Z,21.90
2018-04-18T10:29:43.459Z,22.03
2018-04-18T10:32:10.908Z,21.39
2018-04-18T10:34:38.387Z,21.55
2018-04-18T10:37:05.836Z,21.61
2018-04-18T10:39:33.322Z,21.90
2018-04-18T10:42:00.771Z,22.12
2018-04-18T10:44:28.297Z,22.23
2018-04-18T10:46:55.743Z,22.64
2018-04-18T10:49:23.223Z,22.54
2018-04-18T10:51:50.679Z,21.72
2018-04-18T10:54:18.148Z,22.50
2018-04-18T10:56:45.596Z,22.27
2018-04-18T10:59:13.136Z,22.55
2018-04-18T11:01:40.600Z,23.16
2018-04-18T11:04:08.077Z,22.66
2018-04-18T11:06:36.506Z,22.63
2018-04-18T11:09:04.029Z,22.78
2018-04-18T11:11:31.479Z,22.64
2018-04-18T11:13:58.934Z,22.76
2018-04-18T11:16:26.428Z,22.85
2018-04-18T11:18:53.875Z,23.24
2018-04-18T11:21:21.359Z,23.01
2018-04-18T11:23:48.807Z,22.98
2018-04-18T11:26:16.287Z,23.11
2018-04-18T11:28:43.740Z,22.86
2018-04-18T11:31:11.219Z,22.15
2018-04-18T11:33:39.655Z,22.11
2018-04-18T11:36:07.139Z,22.00
2018-04-18T11:38:34.583Z,22.27
2018-04-18T11:41:02.088Z,22.84
2018-04-18T11:43:29.544Z,22.75
2018-04-18T11:45:57.024Z,22.48
2018-04-18T11:48:24.466Z,22.54
2018-04-18T11:50:51.979Z,22.52
2018-04-18T11:53:19.424Z,22.39
2018-04-18T11:55:46.903Z,22.32
2018-04-18T11:58:15.338Z,22.79
2018-04-18T12:00:42.787Z,22.69
2018-04-18T12:03:15.091Z,22.57
2018-04-18T12:05:42.535Z,22.89
2018-04-18T12:08:09.989Z,22.97
2018-04-18T12:10:37.448Z,22.36
2018-04-18T12:13:04.925Z,22.94
2018-04-18T12:15:32.351Z,23.08
2018-04-18T12:17:59.801Z,23.42
2018-04-18T12:20:27.226Z,23.88
2018-04-18T12:22:55.641Z,23.24
2018-04-18T12:25:23.083Z,22.85
2018-04-18T12:27:50.559Z,23.05
2018-04-18T12:30:18.047Z,23.70
2018-04-18T12:32:45.521Z,23.43
2018-04-18T12:35:13.060Z,23.52
2018-04-18T12:37:40.531Z,24.19
2018-04-18T12:40:07.987Z,24.07
2018-04-18T12:42:35.440Z,23.52
2018-04-18T12:45:02.936Z,23.51
2018-04-18T12:47:30.385Z,23.22
2018-04-18T12:49:57.875Z,23.71
2018-04-18T12:52:25.324Z,23.77
2018-04-18T12:54:52.804Z,23.30
2018-04-18T12:57:20.617Z,23.81
2018-04-18T12:59:48.131Z,23.67
2018-04-18T13:02:15.580Z,24.28
2018-04-18T13:04:43.113Z,24.71
2018-04-18T13:07:10.573Z,24.25
2018-04-18T13:09:38.048Z,24.42
2018-04-18T13:12:05.495Z,24.62
2018-04-18T13:14:32.987Z,24.48
2018-04-18T13:17:00.434Z,23.68
2018-04-18T13:19:27.889Z,23.84
2018-04-18T13:21:55.368Z,24.06
2018-04-18T13:24:22.816Z,24.74
2018-04-18T13:26:50.350Z,24.92
2018-04-18T13:29:17.799Z,24.14
2018-04-18T13:31:46.401Z,24.57
2018-04-18T13:34:14.855Z,25.20
2018-04-18T13:36:42.343Z,25.85
2018-04-18T13:39:09.797Z,25.00
2018-04-18T13:41:38.483Z,25.39
2018-04-18T13:44:05.922Z,26.84
2018-04-18T13:46:33.420Z,25.22
2018-04-18T13:49:00.867Z,25.32
2018-04-18T13:51:28.338Z,25.87
2018-04-18T13:53:55.784Z,26.17
2018-04-18T13:56:23.272Z,25.74
2018-04-18T13:58:51.648Z,25.55
2018-04-18T14:01:19.129Z,25.48
2018-04-18T14:03:46.587Z,25.92
2018-04-18T14:06:14.064Z,26.11
2018-04-18T14:08:41.512Z,26.40
2018-04-18T14:11:08.983Z,27.15
2018-04-18T14:13:37.404Z,27.91
2018-04-18T14:16:04.995Z,28.01
2018-04-18T14:18:32.549Z,28.49
2018-04-18T14:21:00.003Z,28.43
2018-04-18T14:23:27.500Z,25.74
2018-04-18T14:25:55.025Z,27.47
2018-04-18T14:28:22.504Z,25.95
2018-04-18T14:30:49.951Z,25.55
2018-04-18T14:33:17.428Z,27.04
2018-04-18T14:35:44.888Z,25.21
2018-04-18T14:38:12.424Z,25.82
2018-04-18T14:40:44.547Z,26.67
2018-04-18T14:43:12.023Z,26.91
2018-04-18T14:45:39.479Z,25.75
2018-04-18T14:48:06.957Z,28.14
2018-04-18T14:50:34.410Z,30.33
2018-04-18T14:53:01.883Z,34.60
2018-04-18T14:55:29.327Z,33.66
2018-04-18T14:57:56.799Z,31.64
2018-04-18T15:00:24.247Z,32.81
2018-04-18T15:02:51.743Z,33.08
2018-04-18T15:05:19.209Z,34.04
2018-04-18T15:07:46.695Z,35.89
2018-04-18T15:10:14.167Z,39.72
2018-04-18T15:12:41.623Z,40.72
2018-04-18T15:15:09.103Z,39.01
2018-04-18T15:17:38.076Z,39.32
2018-04-18T15:20:07.080Z,40.18
2018-04-18T15:22:34.531Z,40.03
2018-04-18T15:25:02.017Z,37.46
2018-04-18T15:27:33.224Z,39.87
2018-04-18T15:30:00.680Z,39.28
2018-04-18T15:32:28.109Z,37.21
2018-04-18T15:34:55.572Z,35.31
2018-04-18T15:37:23.005Z,40.20
2018-04-18T15:39:50.480Z,38.88
2018-04-18T15:42:17.936Z,40.43
2018-04-18T15:44:45.452Z,36.10
2018-04-18T15:47:12.904Z,35.48
2018-04-18T15:49:40.394Z,34.69
2018-04-18T15:52:07.848Z,37.11
2018-04-18T15:54:37.262Z,38.65
2018-04-18T15:57:04.715Z,39.47
2018-04-18T15:59:32.413Z,37.96
2018-04-18T16:01:59.894Z,37.75
2018-04-18T16:04:28.320Z,37.59
2018-04-18T16:06:55.815Z,37.53
2018-04-18T16:09:24.268Z,38.08
2018-04-18T16:11:51.767Z,35.15
2018-04-18T16:14:19.224Z,34.28
2018-04-18T16:16:46.703Z,38.83
2018-04-18T16:19:14.151Z,35.46
2018-04-18T16:21:41.643Z,34.27
2018-04-18T16:24:09.087Z,37.30
2018-04-18T16:26:36.571Z,37.99
2018-04-18T16:29:16.113Z,33.60
2018-04-18T16:31:43.600Z,34.57
2018-04-18T16:34:11.052Z,34.12
2018-04-18T16:36:38.525Z,35.94
2018-04-18T16:39:06.895Z,32.80
2018-04-18T16:41:35.381Z,31.00
2018-04-18T16:44:02.877Z,32.07
2018-04-18T16:46:30.333Z,29.83
2018-04-18T16:48:58.748Z,26.42
2018-04-18T16:51:26.192Z,25.54
2018-04-18T16:53:53.688Z,25.31
2018-04-18T16:56:22.115Z,24.76
2018-04-18T16:58:49.606Z,24.30
2018-04-18T17:01:17.057Z,23.99
2018-04-18T17:03:44.540Z,23.99
2018-04-18T17:06:11.995Z,23.32
2018-04-18T17:08:40.455Z,23.28
2018-04-18T17:11:07.908Z,23.10
2018-04-18T17:13:35.391Z,22.76
2018-04-18T17:16:02.852Z,23.04
2018-04-18T17:18:30.336Z,22.56
2018-04-18T17:20:57.783Z,22.25
2018-04-18T17:23:25.280Z,22.29
2018-04-18T17:25:52.741Z,22.48
2018-04-18T17:28:20.235Z,22.21
2018-04-18T17:30:47.687Z,22.02
2018-04-18T17:33:15.139Z,22.02
2018-04-18T17:35:42.623Z,22.02
2018-04-18T17:38:10.063Z,21.96
2018-04-18T17:40:37.544Z,21.60
2018-04-18T17:43:05.895Z,21.73
2018-04-18T17:45:33.377Z,21.46
2018-04-18T17:48:00.839Z,21.50
2018-04-18T17:50:30.289Z,21.46
2018-04-18T17:52:58.735Z,21.15
2018-04-18T17:55:26.221Z,21.21
2018-04-18T17:57:54.587Z,21.20
2018-04-18T18:00:22.073Z,21.08
2018-04-18T18:02:49.531Z,20.98
2018-04-18T18:05:17.012Z,20.86
2018-04-18T18:07:44.462Z,20.86
2018-04-18T18:10:11.961Z,20.75
2018-04-18T18:12:39.415Z,20.59
2018-04-18T18:15:06.896Z,20.50
2018-04-18T18:17:35.276Z,20.37
2018-04-18T18:20:02.855Z,20.29
2018-04-18T18:22:30.307Z,20.13
2018-04-18T18:24:57.784Z,20.09
2018-04-18T18:27:25.232Z,20.03
2018-04-18T18:29:52.715Z,19.87
2018-04-18T18:32:20.165Z,19.82
2018-04-18T18:34:47.652Z,19.76
2018-04-18T18:37:16.045Z,19.72
2018-04-18T18:39:43.547Z,19.64
2018-04-18T18:42:10.992Z,19.62
2018-04-18T18:44:38.450Z,19.53
2018-04-18T18:47:05.950Z,19.46
2018-04-18T18:49:33.408Z,19.30
2018-04-18T18:52:00.888Z,19.20
2018-04-18T18:54:28.348Z,19.10
2018-04-18T18:56:55.929Z,18.97
2018-04-18T18:59:23.389Z,18.96
2018-04-18T19:01:50.864Z,18.93
2018-04-18T19:04:19.218Z,18.71
2018-04-18T19:06:48.831Z,18.65
2018-04-18T19:09:16.282Z,18.71
2018-04-18T19:11:43.758Z,18.53
2018-04-18T19:14:12.171Z,18.52
2018-04-18T19:16:39.635Z,18.52
2018-04-18T19:21:49.884Z,18.56
2018-04-18T19:24:17.382Z,18.46
2018-04-18T19:26:44.872Z,18.33
2018-04-18T19:29:12.341Z,18.33
2018-04-18T19:31:40.014Z,18.40
2018-04-18T19:34:07.479Z,18.30
2018-04-18T19:36:34.972Z,18.13
2018-04-18T19:39:03.356Z,18.08
2018-04-18T19:41:30.832Z,18.00
2018-04-18T19:43:58.308Z,17.98
2018-04-18T19:46:25.771Z,17.90
2018-04-18T19:48:53.274Z,17.86
2018-04-18T19:51:20.732Z,17.77
2018-04-18T19:53:48.215Z,17.74
2018-04-18T19:56:17.452Z,18.09
2018-04-18T19:58:44.991Z,17.81
2018-04-18T20:01:12.452Z,17.72
2018-04-18T20:03:39.989Z,17.58
2018-04-18T20:06:07.530Z,17.52
2018-04-18T20:08:35.096Z,17.54
2018-04-18T20:11:03.528Z,17.54
2018-04-18T20:13:33.195Z,17.42
2018-04-18T20:16:02.217Z,17.49
2018-04-18T20:18:30.771Z,17.47
2018-04-18T20:20:59.201Z,17.35
2018-04-18T20:23:26.692Z,17.27
2018-04-18T20:25:54.135Z,17.29
2018-04-18T20:28:21.615Z,17.51
2018-04-18T20:30:49.183Z,17.12
2018-04-18T20:33:16.635Z,16.94
2018-04-18T20:35:44.210Z,16.96
2018-04-18T20:38:11.791Z,16.90
2018-04-18T20:40:39.299Z,16.92
2018-04-18T20:43:07.756Z,16.83
2018-04-18T20:45:35.248Z,16.72
2018-04-18T20:48:02.792Z,16.69
2018-04-18T20:50:31.610Z,16.59
2018-04-18T20:53:02.034Z,16.52
2018-04-18T20:55:29.619Z,16.62
2018-04-18T20:57:59.533Z,16.53
2018-04-18T21:00:27.096Z,16.42
2018-04-18T21:02:54.593Z,16.45
2018-04-18T21:05:22.175Z,16.39
2018-04-18T21:07:50.629Z,16.49
2018-04-18T21:10:18.202Z,16.43
2018-04-18T21:12:45.662Z,16.32
2018-04-18T21:15:14.192Z,16.19
2018-04-18T21:17:41.684Z,16.24
2018-04-18T21:20:09.165Z,16.18
2018-04-18T21:22:37.273Z,16.21
2018-04-18T21:25:04.805Z,16.09
2018-04-18T21:27:32.312Z,15.93
2018-04-18T21:29:59.779Z,15.77
2018-04-18T21:32:27.279Z,15.76
2018-04-18T21:34:54.776Z,15.74
2018-04-18T21:37:23.275Z,15.59
2018-04-18T21:39:50.776Z,15.59
2018-04-18T21:42:18.292Z,15.54
2018-04-18T21:44:46.129Z,15.43
2018-04-18T21:47:22.638Z,15.44
2018-04-18T21:49:50.092Z,15.29
2018-04-18T21:52:17.958Z,15.39
2018-04-18T21:54:45.467Z,15.32
2018-04-18T21:57:24.414Z,15.20
2018-04-18T21:59:51.910Z,15.09
2018-04-18T22:02:21.464Z,15.10
2018-04-18T22:04:48.980Z,15.06
2018-04-18T22:07:19.225Z,15.19
2018-04-18T22:09:46.797Z,15.28
2018-04-18T22:12:14.264Z,15.14
2018-04-18T22:14:41.848Z,15.09
2018-04-18T22:17:09.659Z,15.08
2018-04-18T22:19:37.128Z,15.19
2018-04-18T22:22:04.585Z,15.13
2018-04-18T22:24:33.079Z,15.04
2018-04-18T22:27:06.187Z,15.00
2018-04-18T22:29:33.687Z,14.95
2018-04-18T22:32:02.008Z,14.89
2018-04-18T22:34:29.510Z,14.81
2018-04-18T22:36:56.956Z,14.72
2018-04-18T22:39:24.455Z,14.65
2018-04-18T22:41:51.919Z,14.63
2018-04-18T22:44:20.087Z,14.57
2018-04-18T22:46:47.543Z,14.61
2018-04-18T22:49:15.051Z,14.58
2018-04-18T22:51:44.440Z,14.48
2018-04-18T22:54:12.003Z,14.44
2018-04-18T22:56:39.546Z,14.47
2018-04-18T22:59:07.014Z,14.59
2018-04-18T23:01:34.893Z,14.77
2018-04-18T23:04:02.409Z,14.77
2018-04-18T23:06:30.217Z,14.72
2018-04-18T23:08:57.692Z,14.73
2018-04-18T23:11:25.199Z,14.63
2018-04-18T23:13:52.700Z,14.39
2018-04-18T23:16:20.192Z,14.20
2018-04-18T23:18:48.499Z,14.07
2018-04-18T23:21:15.990Z,13.93
2018-04-18T23:23:43.451Z,14.12
2018-04-18T23:26:10.935Z,14.15
2018-04-18T23:28:38.395Z,14.14
2018-04-18T23:31:05.880Z,14.30
2018-04-18T23:33:33.341Z,14.25
2018-04-18T23:36:00.835Z,14.32
2018-04-18T23:38:29.220Z,14.16
2018-04-18T23:40:56.688Z,14.15
2018-04-18T23:43:24.434Z,14.15
2018-04-18T23:45:53.866Z,14.24
2018-04-18T23:48:21.366Z,14.24
2018-04-18T23:50:48.820Z,14.22
2018-04-18T23:53:16.304Z,14.29
2018-04-18T23:55:44.816Z,14.36
2018-04-18T23:58:12.322Z,14.36
